sensor_id;sensor_type;location;lat;lon;timestamp;temperature;humidity
44190;DHT22;29856;52.144;5.430;2022-07-23T00:00:56;18.00;99.90
44190;DHT22;29856;52.144;5.430;2022-07-23T00:03:22;17.80;99.90
44190;DHT22;29856;52.144;5.430;2022-07-23T00:05:47;17.60;99.90
44190;DHT22;29856;52.144;5.430;2022-07-23T00:08:13;17.50;99.90
44190;DHT22;29856;52.144;5.430;2022-07-23T00:10:38;17.40;99.90
44190;DHT22;29856;52.144;5.430;2022-07-23T00:13:04;17.30;99.90
44190;DHT22;29856;52.144;5.430;2022-07-23T00:15:29;17.20;99.90
44190;DHT22;29856;52.144;5.430;2022-07-23T00:17:55;17.10;99.90
44190;DHT22;29856;52.144;5.430;2022-07-23T00:20:20;16.90;99.90
44190;DHT22;29856;52.144;5.430;2022-07-23T00:22:50;16.90;99.90
44190;DHT22;29856;52.144;5.430;2022-07-23T00:25:16;16.90;99.90
44190;DHT22;29856;52.144;5.430;2022-07-23T00:27:42;17.00;99.90
44190;DHT22;29856;52.144;5.430;2022-07-23T00:30:08;17.10;99.90
44190;DHT22;29856;52.144;5.430;2022-07-23T00:32:49;17.20;99.90
44190;DHT22;29856;52.144;5.430;2022-07-23T00:35:16;17.30;99.90
44190;DHT22;29856;52.144;5.430;2022-07-23T00:37:42;17.40;99.90
44190;DHT22;29856;52.144;5.430;2022-07-23T00:40:08;17.30;99.90
44190;DHT22;29856;52.144;5.430;2022-07-23T00:42:34;17.30;99.90
44190;DHT22;29856;52.144;5.430;2022-07-23T00:44:59;17.20;99.90
44190;DHT22;29856;52.144;5.430;2022-07-23T00:47:25;17.20;99.90
44190;DHT22;29856;52.144;5.430;2022-07-23T00:49:50;17.10;99.90
44190;DHT22;29856;52.144;5.430;2022-07-23T00:52:16;17.20;99.90
44190;DHT22;29856;52.144;5.430;2022-07-23T00:54:41;17.20;99.90
44190;DHT22;29856;52.144;5.430;2022-07-23T00:57:07;17.30;99.90
44190;DHT22;29856;52.144;5.430;2022-07-23T00:59:33;17.30;99.90
44190;DHT22;29856;52.144;5.430;2022-07-23T01:01:59;17.20;99.90
44190;DHT22;29856;52.144;5.430;2022-07-23T01:04:24;17.10;99.90
44190;DHT22;29856;52.144;5.430;2022-07-23T01:06:50;17.10;99.90
44190;DHT22;29856;52.144;5.430;2022-07-23T01:09:15;17.10;99.90
44190;DHT22;29856;52.144;5.430;2022-07-23T01:11:41;17.10;99.90
44190;DHT22;29856;52.144;5.430;2022-07-23T01:14:11;17.20;99.90
44190;DHT22;29856;52.144;5.430;2022-07-23T01:16:37;17.10;99.90
44190;DHT22;29856;52.144;5.430;2022-07-23T01:19:03;17.10;99.90
44190;DHT22;29856;52.144;5.430;2022-07-23T01:21:29;17.10;99.90
44190;DHT22;29856;52.144;5.430;2022-07-23T01:23:55;17.10;99.90
44190;DHT22;29856;52.144;5.430;2022-07-23T01:26:21;17.20;99.90
44190;DHT22;29856;52.144;5.430;2022-07-23T01:28:46;17.20;99.90
44190;DHT22;29856;52.144;5.430;2022-07-23T01:31:12;17.30;99.90
44190;DHT22;29856;52.144;5.430;2022-07-23T01:33:37;17.20;99.90
44190;DHT22;29856;52.144;5.430;2022-07-23T01:36:03;17.10;99.90
44190;DHT22;29856;52.144;5.430;2022-07-23T01:38:28;17.10;99.90
44190;DHT22;29856;52.144;5.430;2022-07-23T01:40:54;17.00;99.90
44190;DHT22;29856;52.144;5.430;2022-07-23T01:43:19;17.10;99.90
44190;DHT22;29856;52.144;5.430;2022-07-23T01:45:45;17.00;99.90
44190;DHT22;29856;52.144;5.430;2022-07-23T01:48:10;17.10;99.90
44190;DHT22;29856;52.144;5.430;2022-07-23T01:50:36;17.00;99.90
44190;DHT22;29856;52.144;5.430;2022-07-23T01:53:01;16.90;99.90
44190;DHT22;29856;52.144;5.430;2022-07-23T01:55:26;16.90;99.90
44190;DHT22;29856;52.144;5.430;2022-07-23T01:57:52;16.90;99.90
44190;DHT22;29856;52.144;5.430;2022-07-23T02:00:17;16.90;99.90
44190;DHT22;29856;52.144;5.430;2022-07-23T02:02:43;17.00;99.90
44190;DHT22;29856;52.144;5.430;2022-07-23T02:05:09;17.00;99.90
44190;DHT22;29856;52.144;5.430;2022-07-23T02:07:34;16.90;99.90
44190;DHT22;29856;52.144;5.430;2022-07-23T02:10:00;16.90;99.90
44190;DHT22;29856;52.144;5.430;2022-07-23T02:12:25;16.80;99.90
44190;DHT22;29856;52.144;5.430;2022-07-23T02:14:51;16.80;99.90
44190;DHT22;29856;52.144;5.430;2022-07-23T02:17:16;16.80;99.90
44190;DHT22;29856;52.144;5.430;2022-07-23T02:19:42;16.80;99.90
44190;DHT22;29856;52.144;5.430;2022-07-23T02:22:07;16.70;99.90
44190;DHT22;29856;52.144;5.430;2022-07-23T02:24:33;16.70;99.90
44190;DHT22;29856;52.144;5.430;2022-07-23T02:26:58;16.60;99.90
44190;DHT22;29856;52.144;5.430;2022-07-23T02:29:23;16.70;99.90
44190;DHT22;29856;52.144;5.430;2022-07-23T02:31:49;16.70;99.90
44190;DHT22;29856;52.144;5.430;2022-07-23T02:34:14;16.70;99.90
44190;DHT22;29856;52.144;5.430;2022-07-23T02:36:40;16.60;99.90
44190;DHT22;29856;52.144;5.430;2022-07-23T02:39:05;16.60;99.90
44190;DHT22;29856;52.144;5.430;2022-07-23T02:41:31;16.70;99.90
44190;DHT22;29856;52.144;5.430;2022-07-23T02:43:56;16.70;99.90
44190;DHT22;29856;52.144;5.430;2022-07-23T02:46:22;16.70;99.90
44190;DHT22;29856;52.144;5.430;2022-07-23T02:48:47;16.80;99.90
44190;DHT22;29856;52.144;5.430;2022-07-23T02:51:13;16.80;99.90
44190;DHT22;29856;52.144;5.430;2022-07-23T02:53:38;16.70;99.90
44190;DHT22;29856;52.144;5.430;2022-07-23T02:56:04;16.70;99.90
44190;DHT22;29856;52.144;5.430;2022-07-23T02:58:29;16.60;99.90
44190;DHT22;29856;52.144;5.430;2022-07-23T03:00:55;16.60;99.90
44190;DHT22;29856;52.144;5.430;2022-07-23T03:03:20;16.60;99.90
44190;DHT22;29856;52.144;5.430;2022-07-23T03:05:46;16.60;99.90
44190;DHT22;29856;52.144;5.430;2022-07-23T03:08:11;16.50;99.90
44190;DHT22;29856;52.144;5.430;2022-07-23T03:10:37;16.50;99.90
44190;DHT22;29856;52.144;5.430;2022-07-23T03:13:02;16.50;99.90
44190;DHT22;29856;52.144;5.430;2022-07-23T03:15:28;16.40;99.90
44190;DHT22;29856;52.144;5.430;2022-07-23T03:17:53;16.50;99.90
44190;DHT22;29856;52.144;5.430;2022-07-23T03:20:19;16.40;99.90
44190;DHT22;29856;52.144;5.430;2022-07-23T03:22:44;16.40;99.90
44190;DHT22;29856;52.144;5.430;2022-07-23T03:25:10;16.40;99.90
44190;DHT22;29856;52.144;5.430;2022-07-23T03:27:35;16.40;99.90
44190;DHT22;29856;52.144;5.430;2022-07-23T03:30:01;16.30;99.90
44190;DHT22;29856;52.144;5.430;2022-07-23T03:32:26;16.30;99.90
44190;DHT22;29856;52.144;5.430;2022-07-23T03:34:52;16.30;99.90
44190;DHT22;29856;52.144;5.430;2022-07-23T03:37:18;16.30;99.90
44190;DHT22;29856;52.144;5.430;2022-07-23T03:39:44;16.30;99.90
44190;DHT22;29856;52.144;5.430;2022-07-23T03:42:10;16.30;99.90
44190;DHT22;29856;52.144;5.430;2022-07-23T03:44:35;16.30;99.90
44190;DHT22;29856;52.144;5.430;2022-07-23T03:47:01;16.30;99.90
44190;DHT22;29856;52.144;5.430;2022-07-23T03:49:26;16.30;99.90
44190;DHT22;29856;52.144;5.430;2022-07-23T03:51:52;16.30;99.90
44190;DHT22;29856;52.144;5.430;2022-07-23T03:54:17;16.20;99.90
44190;DHT22;29856;52.144;5.430;2022-07-23T03:56:43;16.20;99.90
44190;DHT22;29856;52.144;5.430;2022-07-23T03:59:09;16.20;99.90
44190;DHT22;29856;52.144;5.430;2022-07-23T04:01:35;16.30;99.90
44190;DHT22;29856;52.144;5.430;2022-07-23T04:04:01;16.30;99.90
44190;DHT22;29856;52.144;5.430;2022-07-23T04:06:26;16.20;99.90
44190;DHT22;29856;52.144;5.430;2022-07-23T04:08:52;16.30;99.90
44190;DHT22;29856;52.144;5.430;2022-07-23T04:11:18;16.30;99.90
44190;DHT22;29856;52.144;5.430;2022-07-23T04:13:43;16.30;99.90
44190;DHT22;29856;52.144;5.430;2022-07-23T04:16:09;16.30;99.90
44190;DHT22;29856;52.144;5.430;2022-07-23T04:18:34;16.30;99.90
44190;DHT22;29856;52.144;5.430;2022-07-23T04:21:00;16.30;99.90
44190;DHT22;29856;52.144;5.430;2022-07-23T04:23:25;16.40;99.90
44190;DHT22;29856;52.144;5.430;2022-07-23T04:25:51;16.40;99.90
44190;DHT22;29856;52.144;5.430;2022-07-23T04:28:16;16.40;99.90
44190;DHT22;29856;52.144;5.430;2022-07-23T04:30:41;16.40;99.90
44190;DHT22;29856;52.144;5.430;2022-07-23T04:33:07;16.40;99.90
44190;DHT22;29856;52.144;5.430;2022-07-23T04:35:34;16.30;99.90
44190;DHT22;29856;52.144;5.430;2022-07-23T04:38:00;16.30;99.90
44190;DHT22;29856;52.144;5.430;2022-07-23T04:40:26;16.30;99.90
44190;DHT22;29856;52.144;5.430;2022-07-23T04:42:51;16.30;99.90
44190;DHT22;29856;52.144;5.430;2022-07-23T04:45:17;16.30;99.90
44190;DHT22;29856;52.144;5.430;2022-07-23T04:47:42;16.30;99.90
44190;DHT22;29856;52.144;5.430;2022-07-23T04:50:08;16.30;99.90
44190;DHT22;29856;52.144;5.430;2022-07-23T04:52:34;16.30;99.90
44190;DHT22;29856;52.144;5.430;2022-07-23T04:54:59;16.40;99.90
44190;DHT22;29856;52.144;5.430;2022-07-23T04:57:25;16.40;99.90
44190;DHT22;29856;52.144;5.430;2022-07-23T04:59:50;16.60;99.90
44190;DHT22;29856;52.144;5.430;2022-07-23T05:02:16;16.70;99.90
44190;DHT22;29856;52.144;5.430;2022-07-23T05:04:41;16.70;99.90
44190;DHT22;29856;52.144;5.430;2022-07-23T05:07:07;17.00;99.90
44190;DHT22;29856;52.144;5.430;2022-07-23T05:09:32;17.10;99.90
44190;DHT22;29856;52.144;5.430;2022-07-23T05:11:58;17.20;99.90
44190;DHT22;29856;52.144;5.430;2022-07-23T05:14:23;17.20;99.90
44190;DHT22;29856;52.144;5.430;2022-07-23T05:16:49;17.20;99.90
44190;DHT22;29856;52.144;5.430;2022-07-23T05:19:15;17.20;99.90
44190;DHT22;29856;52.144;5.430;2022-07-23T05:21:41;17.30;99.90
44190;DHT22;29856;52.144;5.430;2022-07-23T05:24:06;17.40;99.90
44190;DHT22;29856;52.144;5.430;2022-07-23T05:26:32;17.50;99.90
44190;DHT22;29856;52.144;5.430;2022-07-23T05:28:58;17.60;99.90
44190;DHT22;29856;52.144;5.430;2022-07-23T05:31:23;17.60;99.90
44190;DHT22;29856;52.144;5.430;2022-07-23T05:33:48;17.50;99.90
44190;DHT22;29856;52.144;5.430;2022-07-23T05:36:14;17.50;99.90
44190;DHT22;29856;52.144;5.430;2022-07-23T05:38:39;17.70;99.90
44190;DHT22;29856;52.144;5.430;2022-07-23T05:41:05;18.00;99.90
44190;DHT22;29856;52.144;5.430;2022-07-23T05:43:31;18.10;99.90
44190;DHT22;29856;52.144;5.430;2022-07-23T05:45:56;18.20;99.90
44190;DHT22;29856;52.144;5.430;2022-07-23T05:48:22;18.20;99.90
44190;DHT22;29856;52.144;5.430;2022-07-23T05:50:47;18.20;99.90
44190;DHT22;29856;52.144;5.430;2022-07-23T05:53:13;18.20;99.90
44190;DHT22;29856;52.144;5.430;2022-07-23T05:55:39;18.40;99.90
44190;DHT22;29856;52.144;5.430;2022-07-23T05:58:04;18.60;99.90
44190;DHT22;29856;52.144;5.430;2022-07-23T06:00:33;18.70;99.90
44190;DHT22;29856;52.144;5.430;2022-07-23T06:02:58;18.90;99.90
44190;DHT22;29856;52.144;5.430;2022-07-23T06:05:24;18.90;99.90
44190;DHT22;29856;52.144;5.430;2022-07-23T06:07:49;19.00;99.90
44190;DHT22;29856;52.144;5.430;2022-07-23T06:10:15;19.00;99.90
44190;DHT22;29856;52.144;5.430;2022-07-23T06:12:41;18.90;99.90
44190;DHT22;29856;52.144;5.430;2022-07-23T06:15:07;18.90;99.90
44190;DHT22;29856;52.144;5.430;2022-07-23T06:17:33;19.00;99.90
44190;DHT22;29856;52.144;5.430;2022-07-23T06:19:58;19.00;99.90
44190;DHT22;29856;52.144;5.430;2022-07-23T06:22:24;19.20;99.90
44190;DHT22;29856;52.144;5.430;2022-07-23T06:24:50;19.20;99.90
44190;DHT22;29856;52.144;5.430;2022-07-23T06:27:15;19.30;99.90
44190;DHT22;29856;52.144;5.430;2022-07-23T06:29:41;19.40;99.90
44190;DHT22;29856;52.144;5.430;2022-07-23T06:32:07;19.50;99.90
44190;DHT22;29856;52.144;5.430;2022-07-23T06:34:33;19.70;99.90
44190;DHT22;29856;52.144;5.430;2022-07-23T06:36:59;19.70;99.90
44190;DHT22;29856;52.144;5.430;2022-07-23T06:39:24;19.80;99.90
44190;DHT22;29856;52.144;5.430;2022-07-23T06:41:50;19.90;99.90
44190;DHT22;29856;52.144;5.430;2022-07-23T06:44:15;20.00;99.90
44190;DHT22;29856;52.144;5.430;2022-07-23T06:46:41;20.20;99.90
44190;DHT22;29856;52.144;5.430;2022-07-23T06:49:06;20.30;99.90
44190;DHT22;29856;52.144;5.430;2022-07-23T06:51:32;20.40;99.90
44190;DHT22;29856;52.144;5.430;2022-07-23T06:53:57;20.60;99.90
44190;DHT22;29856;52.144;5.430;2022-07-23T06:56:23;20.80;99.90
44190;DHT22;29856;52.144;5.430;2022-07-23T06:58:48;20.70;99.90
44190;DHT22;29856;52.144;5.430;2022-07-23T07:01:14;20.80;99.90
44190;DHT22;29856;52.144;5.430;2022-07-23T07:03:39;20.70;99.90
44190;DHT22;29856;52.144;5.430;2022-07-23T07:06:05;20.80;99.90
44190;DHT22;29856;52.144;5.430;2022-07-23T07:08:30;20.60;99.90
44190;DHT22;29856;52.144;5.430;2022-07-23T07:10:56;20.50;99.90
44190;DHT22;29856;52.144;5.430;2022-07-23T07:13:21;20.60;99.90
44190;DHT22;29856;52.144;5.430;2022-07-23T07:15:49;20.60;99.90
44190;DHT22;29856;52.144;5.430;2022-07-23T07:18:15;20.60;99.90
44190;DHT22;29856;52.144;5.430;2022-07-23T07:20:40;20.10;99.90
44190;DHT22;29856;52.144;5.430;2022-07-23T07:23:06;20.00;99.90
44190;DHT22;29856;52.144;5.430;2022-07-23T07:25:31;20.40;99.90
44190;DHT22;29856;52.144;5.430;2022-07-23T07:27:56;20.30;99.90
44190;DHT22;29856;52.144;5.430;2022-07-23T07:30:22;20.30;99.90
44190;DHT22;29856;52.144;5.430;2022-07-23T07:32:48;20.70;99.90
44190;DHT22;29856;52.144;5.430;2022-07-23T07:35:13;20.70;99.90
44190;DHT22;29856;52.144;5.430;2022-07-23T07:37:38;20.30;99.90
44190;DHT22;29856;52.144;5.430;2022-07-23T07:40:04;20.20;99.90
44190;DHT22;29856;52.144;5.430;2022-07-23T07:42:30;20.70;99.90
44190;DHT22;29856;52.144;5.430;2022-07-23T07:44:55;20.70;99.90
44190;DHT22;29856;52.144;5.430;2022-07-23T07:47:21;20.90;99.90
44190;DHT22;29856;52.144;5.430;2022-07-23T07:49:46;20.30;99.90
44190;DHT22;29856;52.144;5.430;2022-07-23T07:52:12;20.30;99.90
44190;DHT22;29856;52.144;5.430;2022-07-23T07:54:37;20.50;99.90
44190;DHT22;29856;52.144;5.430;2022-07-23T07:57:03;20.50;99.90
44190;DHT22;29856;52.144;5.430;2022-07-23T07:59:28;20.30;99.90
44190;DHT22;29856;52.144;5.430;2022-07-23T08:01:54;20.10;99.90
44190;DHT22;29856;52.144;5.430;2022-07-23T08:04:20;20.40;99.90
44190;DHT22;29856;52.144;5.430;2022-07-23T08:06:45;20.60;99.90
44190;DHT22;29856;52.144;5.430;2022-07-23T08:09:11;20.90;99.90
44190;DHT22;29856;52.144;5.430;2022-07-23T08:11:36;20.70;99.90
44190;DHT22;29856;52.144;5.430;2022-07-23T08:14:02;20.80;99.90
44190;DHT22;29856;52.144;5.430;2022-07-23T08:16:28;21.10;99.90
44190;DHT22;29856;52.144;5.430;2022-07-23T08:18:53;21.20;99.90
44190;DHT22;29856;52.144;5.430;2022-07-23T08:21:19;21.50;99.90
44190;DHT22;29856;52.144;5.430;2022-07-23T08:23:44;21.80;99.90
44190;DHT22;29856;52.144;5.430;2022-07-23T08:26:10;21.50;99.90
44190;DHT22;29856;52.144;5.430;2022-07-23T08:28:35;21.60;99.90
44190;DHT22;29856;52.144;5.430;2022-07-23T08:31:01;21.40;99.90
44190;DHT22;29856;52.144;5.430;2022-07-23T08:33:27;21.20;99.90
44190;DHT22;29856;52.144;5.430;2022-07-23T08:35:52;21.30;99.90
44190;DHT22;29856;52.144;5.430;2022-07-23T08:38:19;21.50;99.90
44190;DHT22;29856;52.144;5.430;2022-07-23T08:40:51;21.60;99.90
44190;DHT22;29856;52.144;5.430;2022-07-23T08:43:24;21.80;99.90
44190;DHT22;29856;52.144;5.430;2022-07-23T08:45:53;22.30;99.90
44190;DHT22;29856;52.144;5.430;2022-07-23T08:48:20;22.70;99.90
44190;DHT22;29856;52.144;5.430;2022-07-23T08:50:48;22.80;99.90
44190;DHT22;29856;52.144;5.430;2022-07-23T08:53:15;22.90;99.90
44190;DHT22;29856;52.144;5.430;2022-07-23T08:55:43;22.90;99.90
44190;DHT22;29856;52.144;5.430;2022-07-23T08:58:09;22.90;99.90
44190;DHT22;29856;52.144;5.430;2022-07-23T09:00:34;23.00;99.90
44190;DHT22;29856;52.144;5.430;2022-07-23T09:03:00;23.10;99.90
44190;DHT22;29856;52.144;5.430;2022-07-23T09:05:25;23.30;99.90
44190;DHT22;29856;52.144;5.430;2022-07-23T09:08:14;23.40;99.90
44190;DHT22;29856;52.144;5.430;2022-07-23T09:10:57;23.30;99.90
44190;DHT22;29856;52.144;5.430;2022-07-23T09:16:00;22.80;99.90
44190;DHT22;29856;52.144;5.430;2022-07-23T09:18:30;22.90;99.90
44190;DHT22;29856;52.144;5.430;2022-07-23T09:21:09;22.60;99.90
44190;DHT22;29856;52.144;5.430;2022-07-23T09:23:49;22.90;99.90
44190;DHT22;29856;52.144;5.430;2022-07-23T09:26:24;23.10;99.90
44190;DHT22;29856;52.144;5.430;2022-07-23T09:28:52;22.80;99.90
44190;DHT22;29856;52.144;5.430;2022-07-23T09:31:18;23.00;99.90
44190;DHT22;29856;52.144;5.430;2022-07-23T09:33:43;22.40;99.90
44190;DHT22;29856;52.144;5.430;2022-07-23T09:36:08;22.80;99.90
44190;DHT22;29856;52.144;5.430;2022-07-23T09:38:34;23.20;99.90
44190;DHT22;29856;52.144;5.430;2022-07-23T09:41:10;23.00;99.90
44190;DHT22;29856;52.144;5.430;2022-07-23T09:43:36;23.40;99.90
44190;DHT22;29856;52.144;5.430;2022-07-23T09:48:43;22.90;99.90
44190;DHT22;29856;52.144;5.430;2022-07-23T09:51:08;23.00;99.90
44190;DHT22;29856;52.144;5.430;2022-07-23T09:53:34;23.20;99.90
44190;DHT22;29856;52.144;5.430;2022-07-23T09:56:00;23.60;99.90
44190;DHT22;29856;52.144;5.430;2022-07-23T09:58:26;23.80;99.90
44190;DHT22;29856;52.144;5.430;2022-07-23T10:00:53;23.90;99.90
44190;DHT22;29856;52.144;5.430;2022-07-23T10:03:19;23.60;99.90
44190;DHT22;29856;52.144;5.430;2022-07-23T10:05:45;23.70;99.90
44190;DHT22;29856;52.144;5.430;2022-07-23T10:08:12;23.70;99.90
44190;DHT22;29856;52.144;5.430;2022-07-23T10:10:39;24.00;99.90
44190;DHT22;29856;52.144;5.430;2022-07-23T10:13:05;24.10;99.90
44190;DHT22;29856;52.144;5.430;2022-07-23T10:15:31;24.10;99.90
44190;DHT22;29856;52.144;5.430;2022-07-23T10:17:56;23.70;99.90
44190;DHT22;29856;52.144;5.430;2022-07-23T10:20:22;23.70;99.90
44190;DHT22;29856;52.144;5.430;2022-07-23T10:23:08;23.90;99.90
44190;DHT22;29856;52.144;5.430;2022-07-23T10:25:41;24.10;99.90
44190;DHT22;29856;52.144;5.430;2022-07-23T10:37:14;23.80;99.90
44190;DHT22;29856;52.144;5.430;2022-07-23T10:39:39;24.30;99.90
44190;DHT22;29856;52.144;5.430;2022-07-23T10:42:09;24.40;99.90
44190;DHT22;29856;52.144;5.430;2022-07-23T10:44:48;24.60;99.70
44190;DHT22;29856;52.144;5.430;2022-07-23T10:47:28;25.10;99.10
44190;DHT22;29856;52.144;5.430;2022-07-23T10:50:21;25.30;98.90
44190;DHT22;29856;52.144;5.430;2022-07-23T10:57:56;24.50;98.40
44190;DHT22;29856;52.144;5.430;2022-07-23T11:00:23;24.50;98.20
44190;DHT22;29856;52.144;5.430;2022-07-23T11:02:51;24.80;98.30
44190;DHT22;29856;52.144;5.430;2022-07-23T11:05:42;24.50;98.40
44190;DHT22;29856;52.144;5.430;2022-07-23T11:10:48;24.80;97.80
44190;DHT22;29856;52.144;5.430;2022-07-23T11:13:39;24.90;97.90
44190;DHT22;29856;52.144;5.430;2022-07-23T11:16:20;25.00;98.40
44190;DHT22;29856;52.144;5.430;2022-07-23T11:18:56;24.80;97.90
44190;DHT22;29856;52.144;5.430;2022-07-23T11:32:00;25.30;97.60
44190;DHT22;29856;52.144;5.430;2022-07-23T11:34:32;24.90;97.80
44190;DHT22;29856;52.144;5.430;2022-07-23T11:36:59;25.30;98.20
44190;DHT22;29856;52.144;5.430;2022-07-23T11:39:28;25.50;97.90
44190;DHT22;29856;52.144;5.430;2022-07-23T11:41:55;26.00;97.70
44190;DHT22;29856;52.144;5.430;2022-07-23T11:44:28;26.50;96.90
44190;DHT22;29856;52.144;5.430;2022-07-23T11:46:58;26.40;96.30
44190;DHT22;29856;52.144;5.430;2022-07-23T11:49:24;26.30;96.70
44190;DHT22;29856;52.144;5.430;2022-07-23T11:52:07;26.40;96.80
44190;DHT22;29856;52.144;5.430;2022-07-23T11:54:35;26.40;96.60
44190;DHT22;29856;52.144;5.430;2022-07-23T11:57:01;26.60;96.60
44190;DHT22;29856;52.144;5.430;2022-07-23T11:59:31;26.60;96.10
44190;DHT22;29856;52.144;5.430;2022-07-23T12:02:02;26.50;96.30
44190;DHT22;29856;52.144;5.430;2022-07-23T12:04:42;25.30;96.70
44190;DHT22;29856;52.144;5.430;2022-07-23T12:09:53;26.00;97.00
44190;DHT22;29856;52.144;5.430;2022-07-23T12:12:19;26.00;96.70
44190;DHT22;29856;52.144;5.430;2022-07-23T12:17:14;26.10;96.90
44190;DHT22;29856;52.144;5.430;2022-07-23T12:19:39;26.30;97.00
44190;DHT22;29856;52.144;5.430;2022-07-23T12:22:05;26.60;96.40
44190;DHT22;29856;52.144;5.430;2022-07-23T12:24:31;26.70;96.10
44190;DHT22;29856;52.144;5.430;2022-07-23T12:27:12;26.90;96.20
44190;DHT22;29856;52.144;5.430;2022-07-23T12:29:37;27.30;96.50
44190;DHT22;29856;52.144;5.430;2022-07-23T12:32:20;27.20;95.70
44190;DHT22;29856;52.144;5.430;2022-07-23T12:34:47;27.30;95.80
44190;DHT22;29856;52.144;5.430;2022-07-23T12:37:43;27.50;96.10
44190;DHT22;29856;52.144;5.430;2022-07-23T12:40:26;27.80;95.20
44190;DHT22;29856;52.144;5.430;2022-07-23T12:42:58;27.80;95.30
44190;DHT22;29856;52.144;5.430;2022-07-23T12:45:26;27.60;95.60
44190;DHT22;29856;52.144;5.430;2022-07-23T12:47:59;26.80;95.90
44190;DHT22;29856;52.144;5.430;2022-07-23T12:50:38;26.00;96.10
44190;DHT22;29856;52.144;5.430;2022-07-23T12:53:14;25.70;96.30
44190;DHT22;29856;52.144;5.430;2022-07-23T12:55:40;26.10;96.60
44190;DHT22;29856;52.144;5.430;2022-07-23T12:58:17;26.60;96.50
44190;DHT22;29856;52.144;5.430;2022-07-23T13:00:55;26.90;96.00
44190;DHT22;29856;52.144;5.430;2022-07-23T13:03:22;27.00;95.50
44190;DHT22;29856;52.144;5.430;2022-07-23T13:05:48;27.20;96.00
44190;DHT22;29856;52.144;5.430;2022-07-23T13:08:14;27.30;95.70
44190;DHT22;29856;52.144;5.430;2022-07-23T13:10:39;27.30;95.60
44190;DHT22;29856;52.144;5.430;2022-07-23T13:13:10;27.60;95.70
44190;DHT22;29856;52.144;5.430;2022-07-23T13:15:35;27.70;95.50
44190;DHT22;29856;52.144;5.430;2022-07-23T13:18:01;27.80;95.90
44190;DHT22;29856;52.144;5.430;2022-07-23T13:20:26;28.20;95.70
44190;DHT22;29856;52.144;5.430;2022-07-23T13:22:52;28.30;95.60
44190;DHT22;29856;52.144;5.430;2022-07-23T13:25:17;28.10;95.20
44190;DHT22;29856;52.144;5.430;2022-07-23T13:27:43;27.90;94.80
44190;DHT22;29856;52.144;5.430;2022-07-23T13:30:09;27.80;95.20
44190;DHT22;29856;52.144;5.430;2022-07-23T13:32:34;28.30;95.00
44190;DHT22;29856;52.144;5.430;2022-07-23T13:35:00;28.70;95.20
44190;DHT22;29856;52.144;5.430;2022-07-23T13:37:25;28.00;95.10
44190;DHT22;29856;52.144;5.430;2022-07-23T13:39:51;28.00;96.00
44190;DHT22;29856;52.144;5.430;2022-07-23T13:42:16;27.90;95.70
44190;DHT22;29856;52.144;5.430;2022-07-23T13:44:42;27.80;96.30
44190;DHT22;29856;52.144;5.430;2022-07-23T13:47:07;27.60;96.30
44190;DHT22;29856;52.144;5.430;2022-07-23T13:49:33;27.50;96.50
44190;DHT22;29856;52.144;5.430;2022-07-23T13:51:58;27.30;96.40
44190;DHT22;29856;52.144;5.430;2022-07-23T13:54:24;27.20;97.00
44190;DHT22;29856;52.144;5.430;2022-07-23T13:56:49;27.30;96.60
44190;DHT22;29856;52.144;5.430;2022-07-23T13:59:15;27.40;96.00
44190;DHT22;29856;52.144;5.430;2022-07-23T14:01:40;27.60;96.20
44190;DHT22;29856;52.144;5.430;2022-07-23T14:04:06;27.50;96.20
44190;DHT22;29856;52.144;5.430;2022-07-23T14:06:31;27.70;96.10
44190;DHT22;29856;52.144;5.430;2022-07-23T14:08:57;27.70;96.00
44190;DHT22;29856;52.144;5.430;2022-07-23T14:11:22;27.70;95.80
44190;DHT22;29856;52.144;5.430;2022-07-23T14:13:48;28.00;95.60
44190;DHT22;29856;52.144;5.430;2022-07-23T14:16:13;28.10;95.20
44190;DHT22;29856;52.144;5.430;2022-07-23T14:18:39;28.10;94.90
44190;DHT22;29856;52.144;5.430;2022-07-23T14:21:04;27.80;95.50
44190;DHT22;29856;52.144;5.430;2022-07-23T14:23:30;27.60;96.00
44190;DHT22;29856;52.144;5.430;2022-07-23T14:25:55;27.50;96.30
44190;DHT22;29856;52.144;5.430;2022-07-23T14:28:20;27.60;96.00
44190;DHT22;29856;52.144;5.430;2022-07-23T14:30:46;27.60;96.30
44190;DHT22;29856;52.144;5.430;2022-07-23T14:33:11;27.50;96.10
44190;DHT22;29856;52.144;5.430;2022-07-23T14:35:39;27.50;96.40
44190;DHT22;29856;52.144;5.430;2022-07-23T14:38:04;27.80;96.20
44190;DHT22;29856;52.144;5.430;2022-07-23T14:40:30;27.90;95.60
44190;DHT22;29856;52.144;5.430;2022-07-23T14:42:55;28.20;95.40
44190;DHT22;29856;52.144;5.430;2022-07-23T14:45:21;28.30;95.10
44190;DHT22;29856;52.144;5.430;2022-07-23T14:47:47;28.10;95.10
44190;DHT22;29856;52.144;5.430;2022-07-23T14:50:12;28.10;94.80
44190;DHT22;29856;52.144;5.430;2022-07-23T14:52:38;27.80;95.20
44190;DHT22;29856;52.144;5.430;2022-07-23T14:55:03;27.80;95.00
44190;DHT22;29856;52.144;5.430;2022-07-23T14:57:29;27.80;95.40
44190;DHT22;29856;52.144;5.430;2022-07-23T14:59:54;28.00;95.10
44190;DHT22;29856;52.144;5.430;2022-07-23T15:02:20;28.00;94.80
44190;DHT22;29856;52.144;5.430;2022-07-23T15:04:45;27.90;95.00
44190;DHT22;29856;52.144;5.430;2022-07-23T15:07:11;28.00;95.60
44190;DHT22;29856;52.144;5.430;2022-07-23T15:09:36;28.20;95.10
44190;DHT22;29856;52.144;5.430;2022-07-23T15:12:02;28.00;94.70
44190;DHT22;29856;52.144;5.430;2022-07-23T15:14:28;27.80;94.80
44190;DHT22;29856;52.144;5.430;2022-07-23T15:16:53;27.90;94.90
44190;DHT22;29856;52.144;5.430;2022-07-23T15:19:19;27.90;95.10
44190;DHT22;29856;52.144;5.430;2022-07-23T15:21:44;28.00;94.80
44190;DHT22;29856;52.144;5.430;2022-07-23T15:24:09;28.00;94.90
44190;DHT22;29856;52.144;5.430;2022-07-23T15:26:35;28.10;95.00
44190;DHT22;29856;52.144;5.430;2022-07-23T15:29:01;28.10;94.70
44190;DHT22;29856;52.144;5.430;2022-07-23T15:31:26;28.10;94.90
44190;DHT22;29856;52.144;5.430;2022-07-23T15:33:52;28.00;94.70
44190;DHT22;29856;52.144;5.430;2022-07-23T15:36:18;27.90;94.70
44190;DHT22;29856;52.144;5.430;2022-07-23T15:38:44;27.70;95.10
44190;DHT22;29856;52.144;5.430;2022-07-23T15:41:10;27.40;95.30
44190;DHT22;29856;52.144;5.430;2022-07-23T15:43:35;27.60;95.10
44190;DHT22;29856;52.144;5.430;2022-07-23T15:46:01;27.50;95.40
44190;DHT22;29856;52.144;5.430;2022-07-23T15:48:27;27.40;95.40
44190;DHT22;29856;52.144;5.430;2022-07-23T15:50:52;27.40;96.50
44190;DHT22;29856;52.144;5.430;2022-07-23T15:53:18;27.40;96.20
44190;DHT22;29856;52.144;5.430;2022-07-23T15:55:44;27.20;96.20
44190;DHT22;29856;52.144;5.430;2022-07-23T15:58:10;27.10;96.40
44190;DHT22;29856;52.144;5.430;2022-07-23T16:00:35;27.00;96.40
44190;DHT22;29856;52.144;5.430;2022-07-23T16:03:01;27.00;97.30
44190;DHT22;29856;52.144;5.430;2022-07-23T16:05:26;27.10;97.50